sensor_id;sensor_type;location;lat;lon;timestamp;temperature;humidity
52765;DHT22;38650;44.536;18.664;2023-03-01T09:32:51;4.40;99.90
52765;DHT22;38650;44.536;18.664;2023-03-01T09:35:18;4.40;99.90
52765;DHT22;38650;44.536;18.664;2023-03-01T09:37:45;4.60;99.90
52765;DHT22;38650;44.536;18.664;2023-03-01T09:40:16;4.80;99.90
52765;DHT22;38650;44.536;18.664;2023-03-01T09:42:53;5.10;99.90
52765;DHT22;38650;44.536;18.664;2023-03-01T09:45:34;5.30;99.90
52765;DHT22;38650;44.536;18.664;2023-03-01T09:48:02;5.50;99.90
52765;DHT22;38650;44.536;18.664;2023-03-01T09:50:35;5.50;99.90
52765;DHT22;38650;44.536;18.664;2023-03-01T09:53:05;5.50;99.90
52765;DHT22;38650;44.536;18.664;2023-03-01T10:01:50;5.90;99.90
52765;DHT22;38650;44.536;18.664;2023-03-01T10:09:49;6.20;99.90
52765;DHT22;38650;44.536;18.664;2023-03-01T10:12:18;6.30;99.90
52765;DHT22;38650;44.536;18.664;2023-03-01T10:22:45;6.30;99.90
52765;DHT22;38650;44.536;18.664;2023-03-01T10:25:19;6.30;99.90
52765;DHT22;38650;44.536;18.664;2023-03-01T10:27:54;6.20;99.90
52765;DHT22;38650;44.536;18.664;2023-03-01T10:30:34;6.20;99.90
52765;DHT22;38650;44.536;18.664;2023-03-01T10:33:01;6.10;99.90
52765;DHT22;38650;44.536;18.664;2023-03-01T10:35:32;6.10;99.90
52765;DHT22;38650;44.536;18.664;2023-03-01T10:38:09;6.20;99.90
52765;DHT22;38650;44.536;18.664;2023-03-01T10:40:55;6.30;99.90
52765;DHT22;38650;44.536;18.664;2023-03-01T10:43:26;6.40;99.90
52765;DHT22;38650;44.536;18.664;2023-03-01T10:45:53;6.50;99.90
52765;DHT22;38650;44.536;18.664;2023-03-01T10:48:22;6.50;99.90
52765;DHT22;38650;44.536;18.664;2023-03-01T10:53:33;6.60;99.90
52765;DHT22;38650;44.536;18.664;2023-03-01T10:56:08;6.70;99.90
52765;DHT22;38650;44.536;18.664;2023-03-01T10:58:36;6.70;99.90
52765;DHT22;38650;44.536;18.664;2023-03-01T11:03:41;6.30;99.90
52765;DHT22;38650;44.536;18.664;2023-03-01T11:08:47;6.20;99.90
52765;DHT22;38650;44.536;18.664;2023-03-01T11:11:21;6.30;99.90
52765;DHT22;38650;44.536;18.664;2023-03-01T11:13:52;6.30;99.90
52765;DHT22;38650;44.536;18.664;2023-03-01T11:16:28;6.40;99.90
52765;DHT22;38650;44.536;18.664;2023-03-01T11:18:59;6.20;99.90
52765;DHT22;38650;44.536;18.664;2023-03-01T11:21:27;6.10;99.90
52765;DHT22;38650;44.536;18.664;2023-03-01T11:23:54;6.10;99.90
52765;DHT22;38650;44.536;18.664;2023-03-01T11:26:19;6.20;99.90
52765;DHT22;38650;44.536;18.664;2023-03-01T11:28:51;6.40;99.90
52765;DHT22;38650;44.536;18.664;2023-03-01T11:31:19;6.40;99.90
52765;DHT22;38650;44.536;18.664;2023-03-01T11:34:50;6.30;99.90
52765;DHT22;38650;44.536;18.664;2023-03-01T11:36:52;6.20;99.90
52765;DHT22;38650;44.536;18.664;2023-03-01T11:42:14;6.20;99.90
52765;DHT22;38650;44.536;18.664;2023-03-01T11:44:42;6.30;99.90
52765;DHT22;38650;44.536;18.664;2023-03-01T11:50:23;6.40;99.90
52765;DHT22;38650;44.536;18.664;2023-03-01T12:01:40;6.70;99.90
52765;DHT22;38650;44.536;18.664;2023-03-01T12:06:57;6.80;99.90
52765;DHT22;38650;44.536;18.664;2023-03-01T12:25:35;7.20;99.90
52765;DHT22;38650;44.536;18.664;2023-03-01T12:33:43;7.00;99.90
52765;DHT22;38650;44.536;18.664;2023-03-01T12:47:15;7.50;99.90
52765;DHT22;38650;44.536;18.664;2023-03-01T12:49:56;7.60;99.90
52765;DHT22;38650;44.536;18.664;2023-03-01T12:54:56;7.60;99.90
52765;DHT22;38650;44.536;18.664;2023-03-01T12:57:33;7.60;99.90
52765;DHT22;38650;44.536;18.664;2023-03-01T13:00:28;7.70;99.90
52765;DHT22;38650;44.536;18.664;2023-03-01T13:03:42;7.70;99.90
52765;DHT22;38650;44.536;18.664;2023-03-01T13:06:20;7.70;99.90
52765;DHT22;38650;44.536;18.664;2023-03-01T13:08:56;7.70;99.90
52765;DHT22;38650;44.536;18.664;2023-03-01T13:11:26;7.70;99.90
52765;DHT22;38650;44.536;18.664;2023-03-01T13:13:51;7.50;99.90
52765;DHT22;38650;44.536;18.664;2023-03-01T13:16:39;7.50;99.90
52765;DHT22;38650;44.536;18.664;2023-03-01T13:21:43;7.50;99.90
52765;DHT22;38650;44.536;18.664;2023-03-01T13:24:43;7.50;99.90
52765;DHT22;38650;44.536;18.664;2023-03-01T13:27:26;7.50;99.90
52765;DHT22;38650;44.536;18.664;2023-03-01T13:29:57;7.50;99.90
52765;DHT22;38650;44.536;18.664;2023-03-01T13:37:52;7.30;99.90
52765;DHT22;38650;44.536;18.664;2023-03-01T13:42:51;7.20;99.90
52765;DHT22;38650;44.536;18.664;2023-03-01T13:45:24;7.20;99.90
52765;DHT22;38650;44.536;18.664;2023-03-01T13:50:43;7.20;99.90
52765;DHT22;38650;44.536;18.664;2023-03-01T13:53:17;7.20;99.90
52765;DHT22;38650;44.536;18.664;2023-03-01T13:55:58;7.10;99.90
52765;DHT22;38650;44.536;18.664;2023-03-01T13:58:33;7.10;99.90
52765;DHT22;38650;44.536;18.664;2023-03-01T14:01:33;7.10;99.90
52765;DHT22;38650;44.536;18.664;2023-03-01T14:04:00;7.00;99.90
52765;DHT22;38650;44.536;18.664;2023-03-01T14:06:28;7.00;99.90
52765;DHT22;38650;44.536;18.664;2023-03-01T14:12:10;7.10;99.90
52765;DHT22;38650;44.536;18.664;2023-03-01T14:17:40;7.00;99.90
52765;DHT22;38650;44.536;18.664;2023-03-01T14:20:22;7.00;99.90
52765;DHT22;38650;44.536;18.664;2023-03-01T14:22:51;6.90;99.90
52765;DHT22;38650;44.536;18.664;2023-03-01T14:25:36;7.00;99.90
52765;DHT22;38650;44.536;18.664;2023-03-01T14:28:17;7.00;99.90
52765;DHT22;38650;44.536;18.664;2023-03-01T14:30:48;7.00;99.90
52765;DHT22;38650;44.536;18.664;2023-03-01T14:33:23;7.10;99.90
52765;DHT22;38650;44.536;18.664;2023-03-01T14:35:58;7.20;99.90
52765;DHT22;38650;44.536;18.664;2023-03-01T14:41:18;7.10;99.90
52765;DHT22;38650;44.536;18.664;2023-03-01T14:43:46;7.10;99.90
52765;DHT22;38650;44.536;18.664;2023-03-01T14:46:21;7.20;99.90
52765;DHT22;38650;44.536;18.664;2023-03-01T14:48:51;7.20;99.90
52765;DHT22;38650;44.536;18.664;2023-03-01T14:51:18;7.20;99.90
52765;DHT22;38650;44.536;18.664;2023-03-01T14:53:43;7.20;99.90
52765;DHT22;38650;44.536;18.664;2023-03-01T14:56:13;7.20;99.90
52765;DHT22;38650;44.536;18.664;2023-03-01T14:58:39;7.10;99.90
52765;DHT22;38650;44.536;18.664;2023-03-01T15:01:05;7.20;99.90
52765;DHT22;38650;44.536;18.664;2023-03-01T15:03:43;7.20;99.90
52765;DHT22;38650;44.536;18.664;2023-03-01T15:06:10;7.10;99.90
